createdAt,value
2018-08-13T00:01:28.826Z,99990.33
2018-08-13T00:03:59.825Z,99983.20
2018-08-13T00:06:30.577Z,99980.52
2018-08-13T00:09:01.389Z,99979.69
2018-08-13T00:11:31.977Z,99979.75
2018-08-13T00:14:02.736Z,99982.24
2018-08-13T00:16:33.340Z,99984.66
2018-08-13T00:19:04.093Z,99981.34
2018-08-13T00:21:34.738Z,99987.43
2018-08-13T00:24:05.592Z,99980.09
2018-08-13T00:26:36.216Z,99981.68
2018-08-13T00:29:07.170Z,99984.77
2018-08-13T00:31:37.785Z,99987.41
2018-08-13T00:34:08.403Z,99987.84
2018-08-13T00:36:39.073Z,99978.50
2018-08-13T00:39:12.985Z,99980.97
2018-08-13T00:41:43.689Z,99976.88
2018-08-13T00:44:14.489Z,99977.61
2018-08-13T00:46:45.241Z,99975.66
2018-08-13T00:49:16.025Z,99967.66
2018-08-13T00:51:46.665Z,99972.92
2018-08-13T00:54:17.338Z,99966.94
2018-08-13T00:56:48.072Z,99966.39
2018-08-13T00:59:18.828Z,99965.86
2018-08-13T01:01:49.418Z,99964.42
2018-08-13T01:04:20.525Z,99974.77
2018-08-13T01:06:51.201Z,99966.94
2018-08-13T01:09:22.062Z,99971.83
2018-08-13T01:11:52.684Z,99974.12
2018-08-13T01:14:23.489Z,99975.16
2018-08-13T01:16:54.317Z,99977.61
2018-08-13T01:19:25.189Z,99977.92
2018-08-13T01:21:55.954Z,99978.05
2018-08-13T01:24:26.637Z,99979.86
2018-08-13T01:26:57.293Z,99976.19
2018-08-13T01:29:28.065Z,99970.86
2018-08-13T01:31:58.764Z,99978.66
2018-08-13T01:34:29.449Z,99981.02
2018-08-13T01:37:00.122Z,99982.33
2018-08-13T01:39:31.217Z,99981.32
2018-08-13T01:42:01.953Z,99976.73
2018-08-13T01:44:32.804Z,99975.76
2018-08-13T01:47:03.477Z,99978.42
2018-08-13T01:49:34.509Z,99972.20
2018-08-13T01:52:05.029Z,99968.67
2018-08-13T01:54:35.672Z,99973.12
2018-08-13T01:57:06.345Z,99973.00
2018-08-13T01:59:37.341Z,99970.93
2018-08-13T02:02:08.121Z,99979.25
2018-08-13T02:04:39.096Z,99972.78
2018-08-13T02:07:09.736Z,99967.30
2018-08-13T02:09:41.612Z,99959.42
2018-08-13T02:12:13.192Z,99962.45
2018-08-13T02:14:44.120Z,99957.75
2018-08-13T02:17:14.659Z,99955.44
2018-08-13T02:19:46.036Z,99956.19
2018-08-13T02:22:16.632Z,99962.25
2018-08-13T02:24:47.356Z,99967.50
2018-08-13T02:27:17.980Z,99965.39
2018-08-13T02:29:48.842Z,99966.31
2018-08-13T02:32:19.544Z,99966.73
2018-08-13T02:34:50.389Z,99969.87
2018-08-13T02:37:21.090Z,99967.87
2018-08-13T02:39:51.784Z,99968.34
2018-08-13T02:42:22.445Z,99971.51
2018-08-13T02:44:53.316Z,99970.95
2018-08-13T02:47:23.944Z,99975.82
2018-08-13T02:49:54.836Z,99976.38
2018-08-13T02:52:25.505Z,99973.58
2018-08-13T02:54:58.699Z,99974.70
2018-08-13T02:57:29.276Z,99972.22
2018-08-13T02:59:59.896Z,99971.36
2018-08-13T03:02:30.525Z,99965.27
2018-08-13T03:05:01.392Z,99969.50
2018-08-13T03:07:31.998Z,99967.00
2018-08-13T03:10:02.861Z,99966.45
2018-08-13T03:12:33.501Z,99970.25
2018-08-13T03:15:04.493Z,99961.36
2018-08-13T03:17:35.088Z,99968.27
2018-08-13T03:20:07.010Z,99968.24
2018-08-13T03:22:37.757Z,99972.20
2018-08-13T03:25:10.753Z,99975.91
2018-08-13T03:27:41.404Z,99980.34
2018-08-13T03:30:13.948Z,99972.83
2018-08-13T03:32:44.617Z,99971.11
2018-08-13T03:35:15.418Z,99966.44
2018-08-13T03:37:46.033Z,99972.22
2018-08-13T03:40:16.732Z,99967.45
2018-08-13T03:42:47.360Z,99969.94
2018-08-13T03:45:18.036Z,99972.22
2018-08-13T03:47:48.755Z,99976.34
2018-08-13T03:50:19.644Z,99965.42
2018-08-13T03:52:50.265Z,99972.78
2018-08-13T03:55:21.227Z,99970.27
2018-08-13T03:57:52.021Z,99975.76
2018-08-13T04:00:22.830Z,99978.54
2018-08-13T04:02:53.412Z,99982.31
2018-08-13T04:05:23.944Z,99982.52
2018-08-13T04:07:54.727Z,99983.00
2018-08-13T04:10:25.345Z,99980.66
2018-08-13T04:12:55.916Z,99984.22
2018-08-13T04:15:26.905Z,99980.28
2018-08-13T04:17:57.549Z,99978.19
2018-08-13T04:20:28.157Z,99984.43
2018-08-13T04:22:58.878Z,99977.79
2018-08-13T04:25:29.576Z,99977.98
2018-08-13T04:28:00.173Z,99980.98
2018-08-13T04:30:31.263Z,99984.71
2018-08-13T04:33:03.076Z,99968.89
2018-08-13T04:35:33.810Z,99978.50
2018-08-13T04:38:04.524Z,99979.86
2018-08-13T04:40:35.297Z,99985.52
2018-08-13T04:43:06.022Z,99985.34
2018-08-13T04:45:36.971Z,99975.91
2018-08-13T04:48:07.739Z,99977.00
2018-08-13T04:50:38.545Z,99975.61
2018-08-13T04:53:09.100Z,99977.36
2018-08-13T04:55:39.620Z,99975.33
2018-08-13T04:58:10.384Z,99979.23
2018-08-13T05:00:41.124Z,99970.84
2018-08-13T05:03:11.887Z,99971.05
2018-08-13T05:05:43.784Z,99970.84
2018-08-13T05:08:14.456Z,99970.32
2018-08-13T05:10:45.388Z,99967.95
2018-08-13T05:13:16.150Z,99968.22
2018-08-13T05:15:47.101Z,99964.99
2018-08-13T05:18:17.834Z,99964.25
2018-08-13T05:20:48.681Z,99971.05
2018-08-13T05:23:19.136Z,99968.98
2018-08-13T05:25:49.743Z,99974.17
2018-08-13T05:28:20.357Z,99971.61
2018-08-13T05:30:51.116Z,99971.03
2018-08-13T05:33:21.960Z,99965.13
2018-08-13T05:35:52.793Z,99964.77
2018-08-13T05:38:23.483Z,99965.68
2018-08-13T05:40:54.267Z,99960.56
2018-08-13T05:43:24.944Z,99965.31
2018-08-13T05:45:55.962Z,99964.57
2018-08-13T05:48:27.505Z,99962.95
2018-08-13T05:50:58.173Z,99959.95
2018-08-13T05:53:29.074Z,99959.56
2018-08-13T05:55:59.866Z,99948.78
2018-08-13T05:58:30.482Z,99950.83
2018-08-13T06:01:01.349Z,99955.02
2018-08-13T06:03:32.360Z,99954.08
2018-08-13T06:06:03.108Z,99954.28
2018-08-13T06:08:33.756Z,99952.75
2018-08-13T06:11:04.589Z,99949.95
2018-08-13T06:13:35.247Z,99956.81
2018-08-13T06:16:05.916Z,99950.70
2018-08-13T06:18:36.561Z,99951.66
2018-08-13T06:21:07.473Z,99950.66
2018-08-13T06:23:38.069Z,99947.95
2018-08-13T06:26:09.176Z,99946.97
2018-08-13T06:28:39.896Z,99950.00
2018-08-13T06:31:10.860Z,99954.81
2018-08-13T06:33:41.624Z,99956.56
2018-08-13T06:36:12.627Z,99950.14
2018-08-13T06:38:43.288Z,99956.22
2018-08-13T06:41:14.136Z,99950.02
2018-08-13T06:43:44.905Z,99949.51
2018-08-13T06:46:15.737Z,99945.08
2018-08-13T06:48:46.360Z,99948.78
2018-08-13T06:51:17.111Z,99942.88
2018-08-13T06:53:47.778Z,99941.65
2018-08-13T06:56:18.870Z,99940.48
2018-08-13T06:58:49.572Z,99950.17
2018-08-13T07:01:20.248Z,99943.64
2018-08-13T07:03:51.038Z,99940.20
2018-08-13T07:06:21.954Z,99944.45
2018-08-13T07:08:52.693Z,99939.50
2018-08-13T07:11:23.579Z,99938.73
2018-08-13T07:13:55.936Z,99931.08
2018-08-13T07:16:26.631Z,99936.92
2018-08-13T07:18:57.353Z,99934.00
2018-08-13T07:21:28.152Z,99935.91
2018-08-13T07:23:58.833Z,99933.58
2018-08-13T07:26:29.563Z,99930.14
2018-08-13T07:29:00.322Z,99923.93
2018-08-13T07:31:31.233Z,99920.55
2018-08-13T07:34:01.946Z,99921.45
2018-08-13T07:36:32.717Z,99918.03
2018-08-13T07:39:03.771Z,99918.55
2018-08-13T07:41:34.480Z,99923.13
2018-08-13T07:44:05.945Z,99924.37
2018-08-13T07:46:36.567Z,99918.20
2018-08-13T07:49:07.370Z,99920.20
2018-08-13T07:51:38.287Z,99920.72
2018-08-13T07:54:08.797Z,99914.58
2018-08-13T07:56:40.600Z,99909.56
2018-08-13T07:59:11.534Z,99911.42
2018-08-13T08:01:42.431Z,99916.63
2018-08-13T08:04:13.233Z,99912.84
2018-08-13T08:06:43.942Z,99910.76
2018-08-13T08:09:14.551Z,99912.88
2018-08-13T08:11:45.485Z,99901.80
2018-08-13T08:14:16.150Z,99898.86
2018-08-13T08:16:47.054Z,99895.66
2018-08-13T08:19:17.765Z,99892.63
2018-08-13T08:21:48.525Z,99891.64
2018-08-13T08:24:19.117Z,99892.66
2018-08-13T08:26:49.873Z,99888.35
2018-08-13T08:29:20.881Z,99884.39
2018-08-13T08:31:51.492Z,99887.88
2018-08-13T08:34:22.202Z,99880.77
2018-08-13T08:36:52.977Z,99881.68
2018-08-13T08:39:23.722Z,99880.19
2018-08-13T08:41:54.778Z,99880.18
2018-08-13T08:44:25.461Z,99878.37
2018-08-13T08:46:56.133Z,99874.34
2018-08-13T08:49:26.769Z,99868.75
2018-08-13T08:51:57.653Z,99869.59
2018-08-13T08:54:28.317Z,99878.64
2018-08-13T08:56:59.089Z,99868.25
2018-08-13T08:59:29.769Z,99873.97
2018-08-13T09:02:00.647Z,99861.95
2018-08-13T09:04:31.161Z,99861.21
2018-08-13T09:07:02.019Z,99863.83
2018-08-13T09:09:32.781Z,99860.76
2018-08-13T09:12:03.476Z,99852.14
2018-08-13T09:14:34.201Z,99848.66
2018-08-13T09:17:04.981Z,99854.23
2018-08-13T09:19:52.030Z,99849.09
2018-08-13T09:23:42.444Z,99844.62
2018-08-13T09:26:29.145Z,99842.44
2018-08-13T09:29:16.270Z,99834.73
2018-08-13T09:32:31.484Z,99831.08
2018-08-13T09:35:34.361Z,99827.30
2018-08-13T09:38:05.205Z,99823.48
2018-08-13T09:40:35.997Z,99819.95
2018-08-13T09:43:06.801Z,99817.55
2018-08-13T09:45:37.716Z,99813.18
2018-08-13T09:48:08.757Z,99813.11
2018-08-13T09:50:39.484Z,99812.46
2018-08-13T09:53:09.949Z,99803.40
2018-08-13T09:55:40.820Z,99807.74
2018-08-13T09:58:12.153Z,99807.55
2018-08-13T10:00:47.949Z,99798.42
2018-08-13T10:03:18.356Z,99797.23
2018-08-13T10:05:48.997Z,99795.36
2018-08-13T10:08:19.620Z,99794.77
2018-08-13T10:10:50.534Z,99802.92
2018-08-13T10:13:21.333Z,99789.66
2018-08-13T10:15:52.012Z,99790.31
2018-08-13T10:18:22.688Z,99793.43
2018-08-13T10:20:53.622Z,99793.22
2018-08-13T10:23:24.265Z,99779.73
2018-08-13T10:25:55.145Z,99771.39
2018-08-13T10:28:25.846Z,99773.23
2018-08-13T10:30:56.628Z,99768.89
2018-08-13T10:33:27.270Z,99772.11
2018-08-13T10:35:58.133Z,99766.47
2018-08-13T10:38:28.716Z,99764.13
2018-08-13T10:40:59.460Z,99764.52
2018-08-13T10:43:30.241Z,99758.70
2018-08-13T10:46:00.881Z,99759.92
2018-08-13T10:48:31.552Z,99755.14
2018-08-13T10:51:02.301Z,99751.60
2018-08-13T10:53:33.129Z,99757.12
2018-08-13T10:56:03.962Z,99746.73
2018-08-13T10:58:34.745Z,99744.71
2018-08-13T11:01:05.568Z,99744.97
2018-08-13T11:03:36.381Z,99735.61
2018-08-13T11:06:07.125Z,99739.88
2018-08-13T11:08:37.633Z,99736.00
2018-08-13T11:11:08.562Z,99734.72
2018-08-13T11:13:39.140Z,99721.98
2018-08-13T11:16:09.916Z,99729.03
2018-08-13T11:18:40.613Z,99717.14
2018-08-13T11:21:11.493Z,99713.20
2018-08-13T11:23:42.169Z,99717.53
2018-08-13T11:26:12.858Z,99711.84
2018-08-13T11:28:43.316Z,99711.89
2018-08-13T11:31:14.061Z,99705.88
2018-08-13T11:33:44.676Z,99702.19
2018-08-13T11:36:15.434Z,99697.52
2018-08-13T11:38:46.173Z,99701.54
2018-08-13T11:41:16.969Z,99693.91
2018-08-13T11:43:47.581Z,99694.52
2018-08-13T11:46:18.546Z,99690.92
2018-08-13T11:48:49.237Z,99691.42
2018-08-13T11:51:20.037Z,99689.45
2018-08-13T11:53:50.616Z,99681.34
2018-08-13T11:56:21.435Z,99682.68
2018-08-13T11:58:52.020Z,99675.48
2018-08-13T12:01:22.882Z,99680.80
2018-08-13T12:03:54.213Z,99671.20
2018-08-13T12:06:24.954Z,99673.55
2018-08-13T12:08:55.632Z,99658.65
2018-08-13T12:11:26.490Z,99666.33
2018-08-13T12:13:57.173Z,99654.93
2018-08-13T12:16:28.050Z,99647.77
2018-08-13T12:18:58.740Z,99647.39
2018-08-13T12:21:29.589Z,99648.33
2018-08-13T12:24:00.133Z,99637.20
2018-08-13T12:26:31.009Z,99631.61
2018-08-13T12:29:01.696Z,99631.02
2018-08-13T12:31:32.546Z,99639.28
2018-08-13T12:34:03.302Z,99635.78
2018-08-13T12:36:34.669Z,99635.84
2018-08-13T12:39:09.022Z,99626.48
2018-08-13T12:41:39.978Z,99634.48
2018-08-13T12:44:10.801Z,99629.08
2018-08-13T12:46:41.653Z,99624.52
2018-08-13T12:49:12.391Z,99626.22
2018-08-13T12:51:43.133Z,99618.23
2018-08-13T12:54:13.765Z,99615.14
2018-08-13T12:56:44.642Z,99613.67
2018-08-13T12:59:15.348Z,99619.52
2018-08-13T13:01:46.214Z,99608.71
2018-08-13T13:04:16.844Z,99602.19
2018-08-13T13:06:47.825Z,99603.80
2018-08-13T13:09:18.462Z,99597.73
2018-08-13T13:11:49.257Z,99602.98
2018-08-13T13:14:20.018Z,99593.73
2018-08-13T13:16:50.777Z,99601.23
2018-08-13T13:19:21.458Z,99599.77
2018-08-13T13:21:52.628Z,99592.98
2018-08-13T13:24:23.197Z,99591.90
2018-08-13T13:26:53.921Z,99582.51
2018-08-13T13:29:24.576Z,99590.64
2018-08-13T13:31:55.349Z,99588.56
2018-08-13T13:34:26.001Z,99587.45
2018-08-13T13:36:56.349Z,99586.45
2018-08-13T13:39:27.024Z,99584.73
2018-08-13T13:41:58.093Z,99584.03
2018-08-13T13:44:28.352Z,99587.55
2018-08-13T13:46:59.040Z,99584.80
2018-08-13T13:49:29.734Z,99588.84
2018-08-13T13:52:00.501Z,99586.25
2018-08-13T13:54:30.993Z,99572.63
2018-08-13T13:57:01.906Z,99571.08
2018-08-13T13:59:32.278Z,99574.92
2018-08-13T14:02:02.880Z,99567.73
2018-08-13T14:04:33.162Z,99562.24
2018-08-13T14:07:03.608Z,99569.81
2018-08-13T14:09:34.192Z,99561.91
2018-08-13T14:12:04.822Z,99551.61
2018-08-13T14:14:36.017Z,99560.73
2018-08-13T14:17:06.747Z,99560.27
2018-08-13T14:19:37.462Z,99553.02
2018-08-13T14:22:08.272Z,99549.78
2018-08-13T14:24:39.072Z,99552.13
2018-08-13T14:27:09.457Z,99546.64
2018-08-13T14:29:40.118Z,99544.84
2018-08-13T14:32:10.506Z,99547.69
2018-08-13T14:34:41.357Z,99552.94
2018-08-13T14:37:12.084Z,99552.79
2018-08-13T14:39:42.990Z,99549.13
2018-08-13T14:42:13.593Z,99547.14
2018-08-13T14:44:44.453Z,99552.73
2018-08-13T14:47:14.916Z,99547.34
2018-08-13T14:49:45.705Z,99546.72
2018-08-13T14:52:16.262Z,99551.37
2018-08-13T14:54:47.169Z,99547.62
2018-08-13T14:57:17.775Z,99541.03
2018-08-13T14:59:48.593Z,99543.02
2018-08-13T15:02:19.237Z,99540.16
2018-08-13T15:04:49.909Z,99532.29
2018-08-13T15:07:20.248Z,99529.44
2018-08-13T15:09:50.938Z,99528.59
2018-08-13T15:12:21.637Z,99521.33
2018-08-13T15:14:52.421Z,99523.65
2018-08-13T15:17:23.104Z,99520.48
2018-08-13T15:19:53.784Z,99517.23
2018-08-13T15:22:24.523Z,99521.45
2018-08-13T15:24:55.192Z,99526.91
2018-08-13T15:27:25.870Z,99523.15
2018-08-13T15:29:56.562Z,99522.09
2018-08-13T15:32:26.921Z,99515.97
2018-08-13T15:34:57.381Z,99517.98
2018-08-13T15:37:27.747Z,99509.53
2018-08-13T15:39:58.208Z,99521.09
2018-08-13T15:42:28.702Z,99519.95
2018-08-13T15:44:59.617Z,99513.33
2018-08-13T15:47:29.908Z,99517.61
2018-08-13T15:50:00.238Z,99520.36
2018-08-13T15:52:30.606Z,99520.37
2018-08-13T15:55:01.129Z,99524.09
2018-08-13T15:57:31.642Z,99527.23
2018-08-13T16:00:02.034Z,99525.95
2018-08-13T16:02:32.462Z,99524.84
2018-08-13T16:05:02.886Z,99518.11
2018-08-13T16:07:33.200Z,99518.59
2018-08-13T16:10:04.099Z,99517.84
2018-08-13T16:12:34.390Z,99514.27
2018-08-13T16:15:05.709Z,99518.41
2018-08-13T16:17:36.369Z,99515.70
2018-08-13T16:20:12.304Z,99519.86
2018-08-13T16:22:43.044Z,99520.27
2018-08-13T16:25:13.617Z,99519.58
2018-08-13T16:27:44.757Z,99521.78
2018-08-13T16:30:23.097Z,99524.47
2018-08-13T16:32:53.757Z,99522.64
2018-08-13T16:35:25.409Z,99523.98
2018-08-13T16:37:56.410Z,99521.92
2018-08-13T16:40:27.137Z,99522.02
2018-08-13T16:42:57.850Z,99523.77
2018-08-13T16:45:28.598Z,99526.75
2018-08-13T16:47:59.350Z,99528.57
2018-08-13T16:50:33.505Z,99527.42
2018-08-13T16:53:04.208Z,99528.33
2018-08-13T16:55:35.197Z,99529.65
2018-08-13T16:58:05.650Z,99529.80
2018-08-13T17:00:36.309Z,99537.70
2018-08-13T17:03:06.858Z,99537.08
2018-08-13T17:05:37.280Z,99546.70
2018-08-13T17:08:07.791Z,99539.91
2018-08-13T17:10:38.184Z,99537.78
2018-08-13T17:13:08.609Z,99538.42
2018-08-13T17:15:39.194Z,99548.70
2018-08-13T17:18:09.536Z,99556.59
2018-08-13T17:20:42.273Z,99557.27
2018-08-13T17:23:12.640Z,99555.05
2018-08-13T17:25:43.241Z,99555.98
2018-08-13T17:28:13.671Z,99564.13
2018-08-13T17:30:44.161Z,99560.88
2018-08-13T17:33:14.578Z,99568.31
2018-08-13T17:35:45.209Z,99568.47
2018-08-13T17:38:15.564Z,99566.38
2018-08-13T17:40:46.031Z,99567.37
2018-08-13T17:43:16.536Z,99569.00
2018-08-13T17:45:46.932Z,99572.97
2018-08-13T17:48:17.314Z,99572.75
2018-08-13T17:50:47.729Z,99570.19
2018-08-13T17:53:18.142Z,99576.66
2018-08-13T17:55:48.964Z,99579.00
2018-08-13T17:58:19.345Z,99582.02
2018-08-13T18:00:50.022Z,99580.11
2018-08-13T18:03:20.436Z,99589.87
2018-08-13T18:05:50.865Z,99593.08
2018-08-13T18:08:21.137Z,99595.48
2018-08-13T18:10:51.597Z,99599.09
2018-08-13T18:13:21.909Z,99599.14
2018-08-13T18:15:52.167Z,99603.53
2018-08-13T18:18:22.595Z,99607.00
2018-08-13T18:20:52.892Z,99611.34
2018-08-13T18:23:23.189Z,99612.00
2018-08-13T18:25:53.973Z,99615.20
2018-08-13T18:28:24.385Z,99616.66
2018-08-13T18:30:55.081Z,99619.98
2018-08-13T18:33:25.396Z,99623.06
2018-08-13T18:35:55.805Z,99628.92
2018-08-13T18:38:26.133Z,99627.47
2018-08-13T18:40:56.413Z,99634.16
2018-08-13T18:43:26.853Z,99644.14
2018-08-13T18:45:57.165Z,99641.84
2018-08-13T18:48:27.511Z,99644.88
2018-08-13T18:50:57.809Z,99659.83
2018-08-13T18:53:28.324Z,99666.55
2018-08-13T18:55:58.714Z,99664.97
2018-08-13T18:58:29.062Z,99664.89
2018-08-13T19:00:59.853Z,99663.06
2018-08-13T19:03:30.220Z,99659.28
2018-08-13T19:06:00.581Z,99661.52
2018-08-13T19:08:30.893Z,99661.27
2018-08-13T19:11:01.563Z,99662.14
2018-08-13T19:13:31.856Z,99661.00
2018-08-13T19:16:02.399Z,99658.22
2018-08-13T19:18:32.717Z,99653.36
2018-08-13T19:21:02.965Z,99656.44
2018-08-13T19:23:33.302Z,99655.11
2018-08-13T19:26:03.769Z,99660.78
2018-08-13T19:28:34.082Z,99659.73
2018-08-13T19:31:04.429Z,99666.61
2018-08-13T19:33:34.991Z,99665.31
2018-08-13T19:36:05.375Z,99661.28
2018-08-13T19:38:35.916Z,99678.39
2018-08-13T19:41:06.329Z,99677.89
2018-08-13T19:43:36.929Z,99672.94
2018-08-13T19:46:07.925Z,99680.27
2018-08-13T19:48:38.345Z,99687.33
2018-08-13T19:51:08.665Z,99684.98
2018-08-13T19:53:39.058Z,99691.26
2018-08-13T19:56:09.941Z,99692.57
2018-08-13T19:58:40.818Z,99695.00
2018-08-13T20:01:11.307Z,99701.02
2018-08-13T20:03:41.565Z,99702.36
2018-08-13T20:06:11.945Z,99707.66
2018-08-13T20:08:42.220Z,99701.66
2018-08-13T20:11:12.582Z,99700.82
2018-08-13T20:13:43.001Z,99702.63
2018-08-13T20:16:13.598Z,99706.09
2018-08-13T20:18:44.094Z,99706.89
2018-08-13T20:21:14.575Z,99714.19
2018-08-13T20:23:44.832Z,99716.73
2018-08-13T20:26:15.181Z,99714.93
2018-08-13T20:28:45.473Z,99717.22
2018-08-13T20:31:15.821Z,99723.25
2018-08-13T20:33:46.246Z,99711.16
2018-08-13T20:36:16.897Z,99710.16
2018-08-13T20:38:47.373Z,99709.94
2018-08-13T20:41:17.612Z,99708.95
2018-08-13T20:43:47.858Z,99714.46
2018-08-13T20:46:18.364Z,99710.26
2018-08-13T20:48:48.813Z,99713.33
2018-08-13T20:51:19.206Z,99712.27
2018-08-13T20:53:49.529Z,99713.42
2018-08-13T20:56:19.879Z,99714.31
2018-08-13T20:58:50.488Z,99722.16
2018-08-13T21:01:20.823Z,99719.27
2018-08-13T21:03:51.166Z,99718.98
2018-08-13T21:06:21.636Z,99720.83
2018-08-13T21:08:51.977Z,99723.45
2018-08-13T21:11:22.522Z,99724.52
2018-08-13T21:13:52.875Z,99725.84
2018-08-13T21:16:23.569Z,99721.88
2018-08-13T21:18:53.883Z,99729.48
2018-08-13T21:21:24.345Z,99729.49
2018-08-13T21:23:54.658Z,99730.01
2018-08-13T21:26:25.072Z,99727.92
2018-08-13T21:28:55.910Z,99726.61
2018-08-13T21:31:26.383Z,99722.35
2018-08-13T21:33:57.020Z,99732.53
2018-08-13T21:36:27.372Z,99731.19
2018-08-13T21:38:57.756Z,99736.72
2018-08-13T21:41:28.066Z,99736.19
2018-08-13T21:43:58.629Z,99736.22
2018-08-13T21:46:28.956Z,99738.23
2018-08-13T21:48:59.464Z,99730.95
2018-08-13T21:51:29.865Z,99727.81
2018-08-13T21:54:00.209Z,99732.48
2018-08-13T21:56:30.549Z,99730.96
2018-08-13T21:59:00.802Z,99735.12
2018-08-13T22:01:36.277Z,99732.69
2018-08-13T22:04:06.570Z,99737.34
2018-08-13T22:06:36.881Z,99744.58
2018-08-13T22:09:09.993Z,99748.70
2018-08-13T22:11:40.463Z,99746.05
2018-08-13T22:14:11.451Z,99746.03
2018-08-13T22:16:41.841Z,99753.77
2018-08-13T22:19:12.282Z,99748.84
2018-08-13T22:21:42.594Z,99750.86
2018-08-13T22:24:29.457Z,99747.41
2018-08-13T22:26:59.708Z,99744.84
2018-08-13T22:29:30.153Z,99743.78
2018-08-13T22:32:00.462Z,99744.52
2018-08-13T22:34:31.000Z,99745.33
2018-08-13T22:37:01.435Z,99738.25
2018-08-13T22:39:31.822Z,99742.92
2018-08-13T22:42:02.193Z,99736.81
2018-08-13T22:44:32.870Z,99741.48
2018-08-13T22:47:03.369Z,99737.23
2018-08-13T22:49:33.872Z,99738.62
2018-08-13T22:52:04.379Z,99733.16
2018-08-13T22:54:34.741Z,99742.23
2018-08-13T22:57:05.173Z,99740.63
2018-08-13T22:59:35.532Z,99741.84
2018-08-13T23:02:05.975Z,99744.02
2018-08-13T23:04:36.381Z,99747.89
2018-08-13T23:07:07.152Z,99750.23
2018-08-13T23:09:37.789Z,99747.45
2018-08-13T23:12:10.692Z,99747.31
2018-08-13T23:14:41.122Z,99749.80
2018-08-13T23:17:11.452Z,99751.85
2018-08-13T23:19:41.786Z,99756.12
2018-08-13T23:22:21.157Z,99747.38
2018-08-13T23:24:51.561Z,99746.36
2018-08-13T23:27:21.828Z,99738.02
2018-08-13T23:29:52.339Z,99741.30
2018-08-13T23:32:22.677Z,99745.84
2018-08-13T23:34:53.274Z,99742.98
2018-08-13T23:37:23.600Z,99740.37
2018-08-13T23:39:54.016Z,99734.82
2018-08-13T23:42:24.361Z,99735.45
2018-08-13T23:44:54.687Z,99733.31
2018-08-13T23:47:25.021Z,99732.98
2018-08-13T23:49:55.448Z,99734.52
2018-08-13T23:52:26.137Z,99728.86
2018-08-13T23:54:56.828Z,99733.84
2018-08-13T23:57:27.244Z,99728.05
2018-08-13T23:59:57.962Z,99728.61
